createdAt,value
2023-05-12T00:00:57.201Z,5.10
2023-05-12T00:11:01.241Z,6.27
2023-05-12T00:21:04.148Z,4.90
2023-05-12T00:31:08.985Z,6.15
2023-05-12T00:41:10.789Z,5.63
2023-05-12T00:51:13.555Z,7.28
2023-05-12T01:01:15.386Z,4.35
2023-05-12T01:11:17.402Z,5.40
2023-05-12T01:21:26.695Z,4.78
2023-05-12T01:31:29.472Z,8.52
2023-05-12T01:41:31.376Z,5.05
2023-05-12T01:51:33.042Z,5.47
2023-05-12T02:01:34.938Z,4.90
2023-05-12T02:11:40.146Z,6.80
2023-05-12T02:21:41.895Z,8.95
2023-05-12T02:31:43.894Z,7.47
2023-05-12T02:41:45.646Z,4.35
2023-05-12T02:51:48.848Z,6.95
2023-05-12T03:11:53.849Z,5.35
2023-05-12T03:22:04.270Z,8.25
2023-05-12T03:32:07.661Z,4.95
2023-05-12T03:52:19.036Z,6.82
2023-05-12T04:02:20.845Z,4.78
2023-05-12T04:12:23.767Z,7.10
2023-05-12T04:32:27.812Z,5.45
2023-05-12T04:42:30.025Z,4.50
2023-05-12T04:52:32.193Z,8.33
2023-05-12T05:02:34.063Z,5.73
2023-05-12T05:12:36.957Z,4.43
2023-05-12T05:22:39.635Z,7.00
2023-05-12T05:32:43.796Z,9.20
2023-05-12T05:42:49.476Z,8.85
2023-05-12T05:52:52.034Z,5.18
2023-05-12T06:02:54.082Z,9.23
2023-05-12T06:13:00.456Z,7.20
2023-05-12T06:23:03.302Z,8.65
2023-05-12T06:33:07.114Z,5.18
2023-05-12T06:43:09.000Z,6.95
2023-05-12T06:53:12.064Z,6.22
2023-05-12T07:03:15.081Z,5.80
2023-05-12T07:13:20.111Z,6.03
2023-05-12T07:23:22.854Z,5.03
2023-05-12T07:33:37.730Z,5.93
2023-05-12T07:43:40.308Z,5.13
2023-05-12T07:53:43.431Z,5.07
2023-05-12T08:03:45.175Z,4.38
2023-05-12T08:13:51.208Z,7.07
2023-05-12T08:23:52.839Z,6.97
2023-05-12T08:34:09.145Z,5.20
2023-05-12T08:44:14.927Z,3.90
2023-05-12T08:54:19.169Z,9.52
2023-05-12T09:04:20.978Z,8.48
2023-05-12T09:14:33.553Z,7.27
2023-05-12T09:24:40.800Z,7.00
2023-05-12T09:34:51.647Z,8.65
2023-05-12T09:44:53.631Z,9.00
2023-05-12T09:54:55.545Z,6.82
2023-05-12T10:05:03.202Z,11.50
2023-05-12T10:15:07.219Z,9.20
2023-05-12T10:25:09.868Z,8.80
2023-05-12T10:35:13.300Z,13.43
2023-05-12T10:45:25.131Z,11.05
2023-05-12T10:55:52.779Z,12.38
2023-05-12T11:06:05.466Z,13.63
2023-05-12T11:16:12.879Z,10.77
2023-05-12T11:26:19.143Z,12.23
2023-05-12T11:36:21.769Z,9.95
2023-05-12T11:46:29.865Z,11.15
2023-05-12T11:56:32.964Z,10.80
2023-05-12T12:06:44.273Z,8.23
2023-05-12T12:16:46.918Z,9.40
2023-05-12T12:26:49.131Z,8.88
2023-05-12T12:36:51.615Z,8.57
2023-05-12T12:47:03.150Z,7.10
2023-05-12T12:57:04.990Z,6.85
2023-05-12T13:07:07.189Z,10.65
2023-05-12T13:17:13.293Z,7.03
2023-05-12T13:27:16.122Z,7.57
2023-05-12T13:37:18.036Z,5.85
2023-05-12T13:47:19.939Z,7.28
2023-05-12T13:57:23.494Z,9.85
2023-05-12T14:07:26.600Z,7.47
2023-05-12T14:27:33.017Z,8.60
2023-05-12T14:37:34.618Z,9.60
2023-05-12T14:47:36.745Z,8.93
2023-05-12T14:57:42.098Z,8.80
2023-05-12T15:07:44.055Z,6.35
2023-05-12T15:17:49.120Z,7.65
2023-05-12T15:27:52.075Z,9.02
2023-05-12T15:37:54.554Z,6.72
2023-05-12T15:47:56.865Z,9.97
2023-05-12T15:58:01.326Z,9.13
2023-05-12T16:08:05.041Z,10.77
2023-05-12T16:18:09.930Z,8.95
2023-05-12T16:28:12.918Z,7.68
2023-05-12T16:38:20.788Z,7.03
2023-05-12T16:48:26.503Z,7.00
2023-05-12T16:58:35.964Z,7.50
2023-05-12T17:08:44.697Z,8.90
2023-05-12T17:28:54.368Z,10.95
2023-05-12T17:38:57.233Z,8.10
2023-05-12T17:48:58.976Z,9.63
2023-05-12T17:59:04.766Z,8.80
2023-05-12T18:09:08.771Z,8.35
2023-05-12T18:19:16.015Z,10.23
2023-05-12T18:29:19.904Z,11.48
2023-05-12T18:39:21.859Z,10.95
2023-05-12T18:49:30.721Z,8.68
2023-05-12T18:59:34.190Z,11.35
2023-05-12T19:09:37.287Z,11.10
2023-05-12T19:29:49.649Z,9.57
2023-05-12T19:39:51.828Z,10.57
2023-05-12T19:49:54.600Z,12.37
2023-05-12T19:59:57.335Z,11.17
2023-05-12T20:10:01.106Z,12.52
2023-05-12T20:20:04.239Z,10.95
2023-05-12T20:30:07.892Z,13.23
2023-05-12T20:40:11.044Z,16.88
2023-05-12T21:00:17.320Z,11.27
2023-05-12T21:10:19.404Z,13.35
2023-05-12T21:20:23.827Z,11.77
2023-05-12T21:30:25.583Z,13.30
2023-05-12T21:40:31.845Z,10.52
2023-05-12T21:50:37.069Z,12.07
2023-05-12T22:00:41.157Z,11.68
2023-05-12T22:10:43.476Z,13.30
2023-05-12T22:20:51.160Z,13.97
2023-05-12T22:30:53.841Z,16.23
2023-05-12T22:40:55.752Z,13.90
2023-05-12T22:51:03.705Z,11.00
2023-05-12T23:01:06.064Z,10.98
2023-05-12T23:11:09.752Z,10.80
2023-05-12T23:21:11.487Z,12.15
2023-05-12T23:31:13.542Z,12.10
2023-05-12T23:41:15.246Z,11.98
2023-05-12T23:51:17.136Z,11.85
